Erie, Minnesota
Current Conditions -  °F | °C
As of 3:35 AM on Saturday 20 Dec 2014 (Local Time) from KTVF Reporting Station
Overcast Overcast  
Wind Chill: 21°   Ceiling: 600
Heat Index: 28°   Visibility: 3mi
Dew Point: 28°   Wind: 7mph
Humidity: 100%   Direction: 190°S
Pressure: 30.01"   Gusts: NA
Location:  48.0638°N, 95.6851°W
Report Text: KTVF 200935Z AUTO 19006KT 3SM OVC006 M02/M02 A3001 RMK AO1
Loading
Personal Weather Stations






























Interactive Weather Map New forecast layout! Learn more

10-Day Weather Forecast

Advertisements
Track Severe Weather on mobile